Time;durP1;ratioP1;P1;durP2;ratioP2;P2;SDS_P1;SDS_P2;PMS_P1;PMS_P2;Temp;Humidity;BMP_temperature;BMP_pressure;BME280_temperature;BME280_humidity;BME280_pressure;Samples;Min_cycle;Max_cycle;Signal;HPM_P1;HPM_P2
2023/04/25 04:02:37;;;;;;;2.07;1.10;;;10.50;76.70;;;;;;5106558;23;20971;-77
2023/04/25 04:05:04;;;;;;;2.57;1.03;;;10.60;76.60;;;;;;4976718;28;20511;-76
2023/04/25 04:07:32;;;;;;;2.30;1.60;;;10.60;76.30;;;;;;4975730;28;20500;-77
2023/04/25 04:09:59;;;;;;;1.83;1.10;;;10.40;76.20;;;;;;4975972;28;20450;-77
2023/04/25 04:12:26;;;;;;;2.77;1.20;;;10.40;76.70;;;;;;4976013;28;20516;-77
2023/04/25 04:14:52;;;;;;;2.00;1.17;;;10.10;76.80;;;;;;4976743;28;20490;-77
2023/04/25 04:17:19;;;;;;;1.70;1.10;;;9.80;78.00;;;;;;4976190;28;20450;-76
2023/04/25 04:19:47;;;;;;;2.37;1.30;;;9.70;78.50;;;;;;4976074;28;20477;-77
2023/04/25 04:22:14;;;;;;;2.20;1.40;;;9.70;78.60;;;;;;4975732;28;20515;-77
2023/04/25 04:24:43;;;;;;;2.10;1.20;;;9.50;79.00;;;;;;4975478;28;20454;-77
2023/04/25 04:27:10;;;;;;;2.07;1.23;;;9.30;79.80;;;;;;4975622;28;20456;-77
2023/04/25 04:29:37;;;;;;;1.93;1.23;;;9.30;80.00;;;;;;4975668;28;20447;-77
2023/04/25 04:32:04;;;;;;;2.10;1.40;;;9.40;79.90;;;;;;4975148;28;20470;-77
2023/04/25 04:34:31;;;;;;;1.90;1.20;;;9.60;79.40;;;;;;4975036;28;21066;-77
2023/04/25 04:37:00;;;;;;;2.10;1.40;;;9.80;79.10;;;;;;4975578;28;20509;-77
2023/04/25 04:39:26;;;;;;;2.30;1.50;;;9.90;78.50;;;;;;4975261;28;20458;-77
2023/04/25 04:41:53;;;;;;;2.13;1.20;;;10.00;77.90;;;;;;4975296;28;20474;-77
2023/04/25 04:44:20;;;;;;;2.00;1.40;;;10.00;78.00;;;;;;4975259;28;20501;-77
2023/04/25 04:46:46;;;;;;;2.30;1.00;;;10.00;77.80;;;;;;4975119;28;20487;-77
2023/04/25 04:49:14;;;;;;;1.97;1.33;;;10.00;77.80;;;;;;4975216;28;20454;-77
2023/04/25 04:51:44;;;;;;;1.97;1.13;;;10.10;78.00;;;;;;4975062;28;20525;-77
2023/04/25 04:54:12;;;;;;;2.37;1.30;;;10.30;77.80;;;;;;4975084;28;20511;-77
2023/04/25 04:56:39;;;;;;;2.30;1.43;;;10.30;77.30;;;;;;4975066;28;20458;-77
2023/04/25 04:59:06;;;;;;;2.10;1.20;;;10.10;77.60;;;;;;4975234;28;20942;-77
2023/04/25 05:01:35;;;;;;;2.27;1.40;;;10.10;78.10;;;;;;4974771;28;20486;-77
2023/04/25 05:04:02;;;;;;;1.90;1.20;;;10.20;78.00;;;;;;4974942;28;20461;-77
2023/04/25 05:06:29;;;;;;;2.10;1.37;;;10.00;77.90;;;;;;4974756;28;20464;-77
2023/04/25 05:08:56;;;;;;;2.13;1.17;;;10.10;78.30;;;;;;4975291;28;20549;-77
2023/04/25 05:11:25;;;;;;;1.80;1.00;;;10.00;78.20;;;;;;4974290;28;20959;-77
2023/04/25 05:13:52;;;;;;;3.33;1.30;;;10.00;78.60;;;;;;4974472;28;20457;-77
2023/04/25 05:16:19;;;;;;;3.33;1.20;;;10.10;78.60;;;;;;4974720;28;20450;-77
2023/04/25 05:18:46;;;;;;;2.10;1.60;;;10.30;78.40;;;;;;4974709;28;20454;-77
2023/04/25 05:21:13;;;;;;;2.30;1.70;;;10.30;78.10;;;;;;4974612;28;20474;-77
2023/04/25 05:23:39;;;;;;;2.00;1.30;;;10.20;77.90;;;;;;4974542;28;20439;-76
2023/04/25 05:26:13;;;;;;;2.47;1.50;;;10.00;78.30;;;;;;4975052;28;20477;-77
2023/04/25 05:28:41;;;;;;;2.10;1.57;;;10.00;78.90;;;;;;4976340;28;20546;-77
2023/04/25 05:31:08;;;;;;;3.60;1.53;;;9.90;79.20;;;;;;4975398;28;20521;-77
2023/04/25 05:33:35;;;;;;;2.23;1.50;;;9.90;79.40;;;;;;4977419;28;20772;-78
2023/04/25 05:36:01;;;;;;;2.03;1.23;;;9.90;79.50;;;;;;4974722;28;20482;-77
2023/04/25 05:38:28;;;;;;;2.20;1.40;;;10.10;79.70;;;;;;4974382;28;20454;-78
2023/04/25 05:40:54;;;;;;;3.20;1.60;;;10.00;79.40;;;;;;4973928;28;21080;-78
2023/04/25 05:43:21;;;;;;;2.03;1.50;;;10.00;79.80;;;;;;4974551;28;20458;-77
2023/04/25 05:45:50;;;;;;;1.90;1.33;;;10.20;79.80;;;;;;4974378;28;20458;-77
2023/04/25 05:48:16;;;;;;;2.13;1.30;;;10.30;79.20;;;;;;4974237;28;20454;-78
2023/04/25 05:50:43;;;;;;;2.53;1.80;;;10.30;79.50;;;;;;4974864;28;20473;-79
2023/04/25 05:53:10;;;;;;;2.10;1.30;;;10.40;79.40;;;;;;4976594;28;20557;-79
2023/04/25 05:55:36;;;;;;;3.00;1.53;;;10.40;79.80;;;;;;4975510;28;20509;-78
2023/04/25 05:58:03;;;;;;;2.20;1.30;;;10.60;79.40;;;;;;4974557;28;20513;-78
2023/04/25 06:00:30;;;;;;;1.83;1.17;;;10.50;78.80;;;;;;4974492;28;20506;-78
2023/04/25 06:02:58;;;;;;;1.90;1.10;;;10.60;78.70;;;;;;4974913;28;20450;-77
2023/04/25 06:05:25;;;;;;;2.50;1.37;;;10.80;78.60;;;;;;4974280;28;20982;-78
2023/04/25 06:07:51;;;;;;;2.73;1.53;;;10.70;78.20;;;;;;4974128;28;20458;-79
2023/04/25 06:10:18;;;;;;;2.10;1.50;;;10.80;77.80;;;;;;4974047;28;20463;-76
2023/04/25 06:12:45;;;;;;;1.90;1.40;;;10.90;78.00;;;;;;4973947;28;20466;-76
2023/04/25 06:15:11;;;;;;;2.20;1.40;;;11.00;77.50;;;;;;4974161;28;20562;-76
2023/04/25 06:17:38;;;;;;;5.10;1.73;;;11.00;76.90;;;;;;4973860;28;20446;-77
2023/04/25 06:20:08;;;;;;;2.47;1.57;;;11.10;76.60;;;;;;4973820;28;20513;-76
2023/04/25 06:22:35;;;;;;;2.00;1.77;;;11.10;76.50;;;;;;4973837;28;20517;-77
2023/04/25 06:25:04;;;;;;;2.57;1.67;;;11.30;76.10;;;;;;4975981;28;20497;-76
2023/04/25 06:27:30;;;;;;;2.23;1.80;;;11.30;75.80;;;;;;4977652;28;20494;-75
2023/04/25 06:29:57;;;;;;;2.23;1.63;;;11.30;75.30;;;;;;4977975;28;20458;-75
2023/04/25 06:32:24;;;;;;;2.03;1.60;;;11.30;75.30;;;;;;4978050;28;20470;-75
2023/04/25 06:34:50;;;;;;;2.37;1.90;;;11.40;75.10;;;;;;4977866;28;20481;-75
2023/04/25 06:37:18;;;;;;;2.20;1.50;;;11.40;75.00;;;;;;4977795;28;20869;-75
2023/04/25 06:39:45;;;;;;;2.10;1.60;;;11.30;74.90;;;;;;4977785;28;20477;-75
2023/04/25 06:42:12;;;;;;;2.00;1.50;;;11.40;74.90;;;;;;4977286;28;20999;-76
2023/04/25 06:44:38;;;;;;;2.33;1.43;;;11.50;74.90;;;;;;4977864;28;20651;-76
2023/04/25 06:47:05;;;;;;;2.00;1.47;;;11.50;74.30;;;;;;4977631;28;20509;-76
2023/04/25 06:49:32;;;;;;;2.67;1.50;;;11.50;74.20;;;;;;4977783;28;20479;-75
2023/04/25 06:51:58;;;;;;;2.60;1.57;;;11.50;74.00;;;;;;4977568;28;20478;-75
2023/04/25 06:54:27;;;;;;;2.23;1.43;;;11.50;73.90;;;;;;4977696;28;20501;-75
2023/04/25 06:56:53;;;;;;;1.90;1.30;;;11.40;73.40;;;;;;4978024;28;20512;-76
2023/04/25 06:59:20;;;;;;;1.70;1.13;;;11.40;73.40;;;;;;4977293;28;20978;-76
2023/04/25 07:01:47;;;;;;;1.80;1.20;;;11.30;73.30;;;;;;4977089;28;20540;-75
2023/04/25 07:04:13;;;;;;;1.90;1.30;;;11.30;73.60;;;;;;4977061;28;20450;-76
2023/04/25 07:06:42;;;;;;;2.00;1.30;;;11.20;73.30;;;;;;4977033;28;20461;-75
2023/04/25 07:09:09;;;;;;;2.10;1.27;;;11.10;73.40;;;;;;4977076;28;20915;-75
2023/04/25 07:11:37;;;;;;;1.87;1.27;;;11.00;74.00;;;;;;4977107;28;20465;-76
2023/04/25 07:14:04;;;;;;;2.00;1.30;;;11.00;74.40;;;;;;4977065;28;20505;-75
2023/04/25 07:16:31;;;;;;;2.07;1.33;;;11.00;74.50;;;;;;4976877;28;20551;-75
2023/04/25 07:18:59;;;;;;;2.30;1.80;;;11.00;74.80;;;;;;4976751;28;20871;-74
2023/04/25 07:21:26;;;;;;;1.93;1.47;;;11.10;74.80;;;;;;4976876;28;20577;-75
2023/04/25 07:23:52;;;;;;;2.10;1.20;;;11.20;75.00;;;;;;4976792;28;20449;-75
2023/04/25 07:26:19;;;;;;;2.33;1.50;;;11.20;75.10;;;;;;4976580;28;20529;-75
2023/04/25 07:28:50;;;;;;;2.07;1.50;;;11.10;75.50;;;;;;4977346;28;20490;-75
2023/04/25 07:31:17;;;;;;;1.90;1.20;;;11.10;76.00;;;;;;4976660;28;20855;-76
2023/04/25 07:33:44;;;;;;;2.27;1.40;;;11.00;76.00;;;;;;4976568;28;20940;-76
2023/04/25 07:36:12;;;;;;;2.33;1.47;;;11.00;76.20;;;;;;4975921;28;20581;-75
2023/04/25 07:38:38;;;;;;;1.90;1.10;;;11.10;76.30;;;;;;4976804;28;20451;-75
2023/04/25 07:41:05;;;;;;;2.20;1.40;;;11.20;76.80;;;;;;4976286;28;21047;-76
2023/04/25 07:43:32;;;;;;;2.37;1.60;;;11.10;77.00;;;;;;4976664;28;20508;-77
2023/04/25 07:46:00;;;;;;;2.03;1.30;;;11.10;77.00;;;;;;4976724;28;20553;-75
2023/04/25 07:48:26;;;;;;;1.87;1.40;;;11.10;77.40;;;;;;4976148;28;20935;-75
2023/04/25 07:50:53;;;;;;;2.00;1.27;;;11.20;77.50;;;;;;4975979;28;20474;-74
2023/04/25 07:53:20;;;;;;;2.00;1.47;;;11.10;77.50;;;;;;4976447;28;20458;-74
2023/04/25 07:55:46;;;;;;;2.37;1.63;;;11.20;77.60;;;;;;4976398;28;20485;-75
2023/04/25 07:58:15;;;;;;;2.03;1.60;;;11.10;77.70;;;;;;4976388;28;20504;-74
2023/04/25 08:00:42;;;;;;;2.10;1.47;;;11.10;78.00;;;;;;4976314;28;20466;-75
2023/04/25 08:03:10;;;;;;;3.90;2.00;;;10.90;78.70;;;;;;4976505;28;20533;-75
2023/04/25 08:05:37;;;;;;;2.23;1.43;;;10.80;79.00;;;;;;4976315;28;20493;-75
2023/04/25 08:08:06;;;;;;;2.37;1.60;;;10.70;79.10;;;;;;4976829;28;20571;-74
2023/04/25 08:10:32;;;;;;;3.37;2.17;;;10.70;79.60;;;;;;4975913;28;20458;-75
2023/04/25 08:12:59;;;;;;;3.00;1.80;;;10.80;79.90;;;;;;4976597;28;20447;-75
2023/04/25 08:15:26;;;;;;;2.23;1.40;;;10.80;80.00;;;;;;4975768;28;20486;-75
2023/04/25 08:17:53;;;;;;;3.20;2.10;;;10.80;79.80;;;;;;4975787;28;20566;-75
2023/04/25 08:20:21;;;;;;;2.10;1.47;;;10.70;79.70;;;;;;4975823;28;20450;-75
2023/04/25 08:22:48;;;;;;;2.40;1.97;;;10.60;80.00;;;;;;4975840;28;20460;-75
2023/04/25 08:25:15;;;;;;;2.57;1.93;;;10.50;80.30;;;;;;4976125;28;20446;-76
2023/04/25 08:27:41;;;;;;;2.47;2.00;;;10.30;81.40;;;;;;4975961;28;20454;-76
2023/04/25 08:30:09;;;;;;;2.20;1.93;;;10.10;81.40;;;;;;4976639;28;20458;-75
2023/04/25 08:32:37;;;;;;;2.60;1.87;;;9.90;82.40;;;;;;4975649;28;21022;-76
2023/04/25 08:35:05;;;;;;;3.13;1.87;;;9.90;82.90;;;;;;4975810;28;20458;-76
2023/04/25 08:37:33;;;;;;;3.50;2.13;;;9.90;82.60;;;;;;4977121;28;20481;-76
2023/04/25 08:40:00;;;;;;;2.80;2.10;;;9.80;82.70;;;;;;4977234;28;20951;-75
2023/04/25 08:42:28;;;;;;;2.87;1.77;;;9.90;83.20;;;;;;4976370;28;20482;-75
2023/04/25 08:44:56;;;;;;;2.23;1.77;;;9.60;83.20;;;;;;4975977;28;20819;-74
2023/04/25 08:47:23;;;;;;;2.70;2.13;;;9.70;84.20;;;;;;4975672;28;20457;-75
2023/04/25 08:49:52;;;;;;;2.60;2.30;;;9.90;84.20;;;;;;4975724;28;20458;-74
2023/04/25 08:52:23;;;;;;;2.40;1.80;;;9.70;82.80;;;;;;4975111;28;20459;-75
2023/04/25 08:54:53;;;;;;;2.57;1.90;;;9.50;83.40;;;;;;4975765;28;20435;-74
2023/04/25 08:57:21;;;;;;;3.33;2.70;;;9.40;84.20;;;;;;4975237;28;20482;-74
2023/04/25 08:59:49;;;;;;;3.07;2.00;;;9.30;85.20;;;;;;4976066;28;20504;-75
2023/04/25 09:02:17;;;;;;;4.73;2.47;;;9.30;85.80;;;;;;4975696;28;20517;-75
2023/04/25 09:04:45;;;;;;;3.23;2.20;;;9.40;85.60;;;;;;4975684;28;20458;-75
2023/04/25 09:07:12;;;;;;;3.20;2.47;;;9.50;85.70;;;;;;4975792;28;20477;-75
2023/04/25 09:09:39;;;;;;;2.63;2.13;;;9.50;85.70;;;;;;4974705;28;20975;-75
2023/04/25 09:12:07;;;;;;;2.47;1.60;;;9.60;85.20;;;;;;4974965;28;20991;-76
2023/04/25 09:14:34;;;;;;;2.80;2.47;;;9.70;84.70;;;;;;4975192;28;21013;-75
2023/04/25 09:17:03;;;;;;;2.10;1.80;;;9.70;84.70;;;;;;4974986;28;20495;-75
2023/04/25 09:19:31;;;;;;;2.60;1.80;;;9.70;84.40;;;;;;4975245;28;20549;-75
2023/04/25 09:22:00;;;;;;;2.70;1.63;;;9.80;84.30;;;;;;4975012;28;20470;-75
2023/04/25 09:24:40;;;;;;;2.20;1.90;;;9.80;84.20;;;;;;4974907;28;20865;-75
2023/04/25 09:27:11;;;;;;;2.40;1.97;;;9.70;83.70;;;;;;4974662;28;20449;-75
2023/04/25 09:29:41;;;;;;;2.40;1.80;;;9.50;84.50;;;;;;4974501;28;20438;-74
2023/04/25 09:32:13;;;;;;;2.30;2.00;;;9.50;85.20;;;;;;4974642;28;20474;-75
2023/04/25 09:34:41;;;;;;;2.43;1.73;;;9.50;84.50;;;;;;4974512;28;20526;-76
2023/04/25 09:37:09;;;;;;;2.73;1.70;;;9.60;86.50;;;;;;4974487;28;21068;-76
2023/04/25 09:39:35;;;;;;;2.43;1.67;;;9.70;85.10;;;;;;4974621;28;20454;-75
2023/04/25 09:42:03;;;;;;;2.13;1.80;;;9.80;84.80;;;;;;4974258;28;20474;-76
2023/04/25 09:44:32;;;;;;;2.60;1.90;;;9.90;84.20;;;;;;4974425;28;20442;-75
2023/04/25 09:46:58;;;;;;;2.30;1.60;;;9.70;83.50;;;;;;4974778;28;20446;-75
2023/04/25 09:49:26;;;;;;;2.00;1.50;;;9.90;84.00;;;;;;4974387;28;20454;-75
2023/04/25 09:51:56;;;;;;;2.20;1.67;;;9.70;82.20;;;;;;4974130;28;20505;-75
2023/04/25 09:54:24;;;;;;;2.00;1.50;;;9.70;82.60;;;;;;4974287;28;20995;-75
2023/04/25 09:56:52;;;;;;;2.30;1.60;;;9.70;83.10;;;;;;4974252;28;20489;-75
2023/04/25 09:59:21;;;;;;;2.10;1.53;;;9.50;83.60;;;;;;4974100;28;20457;-75
2023/04/25 10:01:51;;;;;;;2.53;1.60;;;9.40;83.80;;;;;;4973848;28;20577;-75
2023/04/25 10:04:23;;;;;;;2.93;1.40;;;9.10;82.70;;;;;;4974363;28;20542;-75
2023/04/25 10:06:52;;;;;;;2.20;1.53;;;8.80;84.20;;;;;;4974291;28;20426;-75
2023/04/25 10:09:21;;;;;;;2.10;1.33;;;8.50;84.40;;;;;;4973760;28;20517;-75
2023/04/25 10:11:48;;;;;;;2.00;1.20;;;8.40;85.70;;;;;;4974084;28;20470;-75
2023/04/25 10:14:16;;;;;;;2.00;1.10;;;8.40;85.80;;;;;;4975192;28;20624;-77
2023/04/25 10:16:44;;;;;;;1.60;0.80;;;8.50;86.00;;;;;;4974344;28;21007;-76
2023/04/25 10:19:13;;;;;;;2.23;0.70;;;8.50;85.70;;;;;;4974563;28;20454;-76
2023/04/25 10:21:47;;;;;;;1.60;0.83;;;8.30;85.70;;;;;;4974896;28;20516;-77
2023/04/25 10:24:14;;;;;;;1.60;0.70;;;8.30;86.10;;;;;;4974930;28;20438;-76
2023/04/25 10:26:41;;;;;;;1.70;0.73;;;8.50;85.60;;;;;;4974426;28;20493;-76
2023/04/25 10:29:08;;;;;;;1.70;0.80;;;8.50;84.50;;;;;;4974149;28;20501;-77
2023/04/25 10:31:45;;;;;;;2.10;0.80;;;8.70;85.00;;;;;;4974296;28;20481;-76
2023/04/25 10:34:13;;;;;;;1.50;0.70;;;8.60;85.00;;;;;;4974311;28;20809;-75
2023/04/25 10:36:40;;;;;;;1.60;0.80;;;8.60;83.70;;;;;;4973934;28;20561;-75
2023/04/25 10:39:09;;;;;;;1.60;0.70;;;8.50;84.90;;;;;;4973766;28;20450;-75
2023/04/25 10:41:47;;;;;;;1.80;0.73;;;8.50;85.40;;;;;;4973357;28;20528;-75
2023/04/25 10:44:15;;;;;;;1.50;0.70;;;8.50;86.10;;;;;;4973393;28;21014;-75
2023/04/25 10:46:41;;;;;;;1.60;0.70;;;8.50;85.00;;;;;;4973729;28;20449;-75
2023/04/25 10:49:09;;;;;;;1.90;0.80;;;8.50;86.00;;;;;;4973620;28;20454;-75
2023/04/25 10:51:37;;;;;;;1.80;0.90;;;8.50;86.00;;;;;;4973620;28;20561;-76
2023/04/25 10:54:06;;;;;;;2.27;0.80;;;8.70;86.20;;;;;;4973676;28;20481;-75
2023/04/25 10:56:33;;;;;;;1.50;0.60;;;8.90;86.20;;;;;;4973260;28;21011;-76
2023/04/25 10:59:09;;;;;;;1.50;0.70;;;9.00;84.90;;;;;;4973687;28;20529;-77
2023/04/25 11:01:38;;;;;;;1.73;0.70;;;9.20;84.70;;;;;;4973666;28;21011;-77
2023/04/25 11:04:05;;;;;;;1.50;0.70;;;9.30;84.00;;;;;;4973961;28;20443;-76
2023/04/25 11:06:45;;;;;;;1.77;0.80;;;9.20;83.90;;;;;;4973799;28;20505;-76
2023/04/25 11:09:13;;;;;;;1.70;0.80;;;9.40;84.00;;;;;;4974369;28;20450;-76
2023/04/25 11:11:40;;;;;;;1.73;0.77;;;9.30;83.90;;;;;;4976923;28;20481;-77
2023/04/25 11:14:07;;;;;;;1.83;0.70;;;9.50;84.10;;;;;;4977295;28;20434;-77
2023/04/25 11:16:36;;;;;;;1.60;0.70;;;9.60;83.50;;;;;;4977369;28;20548;-77
2023/04/25 11:19:02;;;;;;;1.70;0.83;;;9.60;83.50;;;;;;4977294;28;20520;-76
2023/04/25 11:21:31;;;;;;;1.67;0.97;;;9.70;83.50;;;;;;4977005;28;20465;-77
2023/04/25 11:24:00;;;;;;;1.90;1.20;;;9.70;83.50;;;;;;4978368;28;20517;-76
2023/04/25 11:26:27;;;;;;;1.80;1.10;;;9.80;82.70;;;;;;4977484;28;20450;-76
2023/04/25 11:28:59;;;;;;;2.67;1.20;;;9.90;82.10;;;;;;4977480;28;20529;-76
2023/04/25 11:31:26;;;;;;;1.83;1.03;;;9.90;81.50;;;;;;4977827;28;20470;-76
2023/04/25 11:33:54;;;;;;;2.50;1.40;;;9.90;81.00;;;;;;4978636;28;20790;-75
2023/04/25 11:36:21;;;;;;;2.00;1.00;;;10.00;80.60;;;;;;4978212;28;20850;-77
2023/04/25 11:38:47;;;;;;;1.90;1.07;;;10.00;80.90;;;;;;4977060;28;20505;-75
2023/04/25 11:41:15;;;;;;;1.97;1.10;;;10.10;80.80;;;;;;4976488;28;20474;-75
2023/04/25 11:43:44;;;;;;;1.90;1.00;;;10.10;80.90;;;;;;4976714;28;20477;-76
2023/04/25 11:46:11;;;;;;;2.50;1.00;;;10.30;81.20;;;;;;4976267;28;20457;-77
2023/04/25 11:48:39;;;;;;;2.63;1.20;;;10.50;80.50;;;;;;4976792;28;20890;-77
2023/04/25 11:51:06;;;;;;;1.80;1.20;;;10.80;80.70;;;;;;4976455;28;20478;-77
2023/04/25 11:53:33;;;;;;;1.90;1.33;;;11.00;79.90;;;;;;4976699;28;20494;-77
2023/04/25 11:55:59;;;;;;;2.80;1.40;;;11.20;79.20;;;;;;4977015;28;20513;-77
2023/04/25 11:58:28;;;;;;;2.20;1.10;;;11.30;78.20;;;;;;4978785;28;20825;-79
2023/04/25 12:00:58;;;;;;;1.93;1.17;;;11.40;78.60;;;;;;4977783;28;20544;-78
2023/04/25 12:03:27;;;;;;;1.90;1.00;;;11.50;77.10;;;;;;4976261;28;20807;-76
2023/04/25 12:05:53;;;;;;;1.77;1.10;;;11.50;78.00;;;;;;4975830;28;20940;-75
2023/04/25 12:08:20;;;;;;;1.87;1.10;;;11.60;77.70;;;;;;4975876;28;20936;-75
2023/04/25 12:10:48;;;;;;;2.23;1.17;;;11.70;76.70;;;;;;4976090;28;20458;-75
2023/04/25 12:13:22;;;;;;;1.70;1.00;;;11.50;76.60;;;;;;4976473;28;20878;-76
2023/04/25 12:15:50;;;;;;;2.43;1.40;;;11.60;77.10;;;;;;4976317;28;20915;-75
2023/04/25 12:18:20;;;;;;;1.90;1.10;;;11.70;77.00;;;;;;4975997;28;20482;-75
2023/04/25 12:20:47;;;;;;;1.80;1.10;;;11.70;75.40;;;;;;4976117;28;20549;-75
2023/04/25 12:23:14;;;;;;;1.90;1.30;;;11.80;75.80;;;;;;4976713;28;20450;-75
2023/04/25 12:25:42;;;;;;;3.37;1.60;;;11.60;76.40;;;;;;4979881;28;20952;-76
2023/04/25 12:28:13;;;;;;;2.30;1.77;;;11.50;76.60;;;;;;4976475;28;20541;-75
2023/04/25 12:30:58;;;;;;;2.10;1.50;;;11.60;77.30;;;;;;4976461;28;20461;-75
2023/04/25 12:33:26;;;;;;;3.37;1.40;;;11.40;76.80;;;;;;4975854;28;20983;-76
2023/04/25 12:35:53;;;;;;;2.20;1.73;;;11.30;76.90;;;;;;4975609;28;20885;-76
2023/04/25 12:38:25;;;;;;;1.80;1.20;;;11.50;78.00;;;;;;4976223;28;20482;-76
2023/04/25 12:40:51;;;;;;;1.90;1.30;;;11.40;76.10;;;;;;4975900;28;20478;-75
2023/04/25 12:43:18;;;;;;;2.70;1.53;;;11.30;74.50;;;;;;4975790;28;20459;-77
2023/04/25 12:45:45;;;;;;;2.27;1.67;;;11.30;75.00;;;;;;4975749;28;20482;-76
2023/04/25 12:48:13;;;;;;;2.20;1.40;;;11.20;74.60;;;;;;4975452;28;20446;-75
2023/04/25 12:50:40;;;;;;;4.97;2.00;;;11.30;74.80;;;;;;4975849;28;20454;-76
2023/04/25 12:53:08;;;;;;;2.40;1.70;;;11.40;75.50;;;;;;4976256;28;21062;-76
2023/04/25 12:55:35;;;;;;;4.00;2.00;;;11.60;75.70;;;;;;4975840;28;21010;-76
2023/04/25 12:58:01;;;;;;;2.27;1.80;;;11.70;75.00;;;;;;4975257;28;20566;-75
2023/04/25 13:00:29;;;;;;;3.23;2.17;;;11.80;74.60;;;;;;4975486;28;20458;-75
2023/04/25 13:02:56;;;;;;;3.20;1.97;;;11.50;74.10;;;;;;4975056;28;20924;-76
2023/04/25 13:05:24;;;;;;;2.60;1.70;;;11.30;75.30;;;;;;4975037;28;20520;-76
2023/04/25 13:07:51;;;;;;;2.60;1.90;;;11.00;77.20;;;;;;4974969;28;20450;-76
2023/04/25 13:10:18;;;;;;;2.90;2.10;;;10.90;76.90;;;;;;4974790;28;20443;-75
2023/04/25 13:12:45;;;;;;;2.10;1.60;;;10.70;77.30;;;;;;4974837;28;20505;-75
2023/04/25 13:15:12;;;;;;;2.47;1.80;;;11.00;79.20;;;;;;4974906;28;20446;-75
2023/04/25 13:17:40;;;;;;;2.17;1.63;;;11.30;78.80;;;;;;4974782;28;20855;-75
2023/04/25 13:20:09;;;;;;;2.30;2.00;;;11.50;78.20;;;;;;4974790;28;20454;-75
2023/04/25 13:22:39;;;;;;;2.40;1.93;;;11.70;77.40;;;;;;4974773;28;20470;-75
2023/04/25 13:25:07;;;;;;;2.00;1.50;;;11.50;75.80;;;;;;4974731;28;20450;-76
2023/04/25 13:27:35;;;;;;;2.27;1.70;;;11.50;77.00;;;;;;4974626;28;20446;-76
2023/04/25 13:30:06;;;;;;;2.33;1.97;;;11.70;76.60;;;;;;4974477;28;20470;-76
2023/04/25 13:32:33;;;;;;;2.20;1.53;;;11.80;76.00;;;;;;4974932;28;20556;-76
2023/04/25 13:35:00;;;;;;;2.83;1.60;;;11.70;75.70;;;;;;4974540;28;20497;-76
2023/04/25 13:37:27;;;;;;;2.60;2.03;;;11.70;77.20;;;;;;4974636;28;20493;-76
2023/04/25 13:39:56;;;;;;;2.23;1.80;;;11.80;78.10;;;;;;4974474;28;20446;-75
2023/04/25 13:42:23;;;;;;;2.33;1.70;;;11.80;76.90;;;;;;4974406;28;20478;-76
2023/04/25 13:44:50;;;;;;;2.50;2.00;;;12.00;78.10;;;;;;4975023;28;20450;-75
2023/04/25 13:47:17;;;;;;;2.50;2.10;;;11.60;77.30;;;;;;4974705;28;20446;-76
2023/04/25 13:49:43;;;;;;;2.50;1.97;;;11.70;79.20;;;;;;4974681;28;20458;-77
2023/04/25 13:52:10;;;;;;;2.70;2.10;;;12.00;77.00;;;;;;4974666;28;20481;-75
2023/04/25 13:54:37;;;;;;;2.60;2.33;;;12.20;75.00;;;;;;4974583;28;20504;-76
2023/04/25 13:57:05;;;;;;;3.20;2.50;;;12.30;75.00;;;;;;4974515;28;20482;-76
2023/04/25 13:59:32;;;;;;;3.33;3.03;;;12.30;73.40;;;;;;4974391;28;20469;-76
2023/04/25 14:01:59;;;;;;;2.47;2.27;;;12.40;73.50;;;;;;4974023;28;20907;-76
2023/04/25 14:04:26;;;;;;;3.10;2.80;;;12.50;73.60;;;;;;4974337;28;20509;-76
2023/04/25 14:06:52;;;;;;;2.33;2.13;;;12.50;74.70;;;;;;4974083;28;20967;-76
2023/04/25 14:09:20;;;;;;;3.10;2.57;;;12.20;74.40;;;;;;4974977;28;20516;-75
2023/04/25 14:11:47;;;;;;;2.20;1.73;;;12.20;75.30;;;;;;4974375;28;20937;-76
2023/04/25 14:14:16;;;;;;;3.23;2.93;;;12.30;76.80;;;;;;4974193;28;20452;-76
2023/04/25 14:16:43;;;;;;;2.70;2.47;;;12.10;73.90;;;;;;4974104;28;20549;-76
2023/04/25 14:19:09;;;;;;;3.43;2.63;;;12.10;74.80;;;;;;4974063;28;20486;-74
2023/04/25 14:21:36;;;;;;;2.50;1.77;;;12.60;74.90;;;;;;4973489;28;21053;-75
2023/04/25 14:24:03;;;;;;;2.67;2.40;;;13.00;72.80;;;;;;4973955;28;20520;-76
2023/04/25 14:26:31;;;;;;;2.80;2.50;;;13.20;72.40;;;;;;4974262;28;20450;-75
2023/04/25 14:28:58;;;;;;;2.53;2.33;;;13.20;71.80;;;;;;4973793;28;20457;-76
2023/04/25 14:31:26;;;;;;;2.80;2.40;;;13.30;70.50;;;;;;4973929;28;20478;-77
2023/04/25 14:33:52;;;;;;;2.53;2.07;;;13.50;69.90;;;;;;4974054;28;20449;-76
2023/04/25 14:36:20;;;;;;;4.23;2.50;;;13.80;70.50;;;;;;4973956;28;20503;-75
2023/04/25 14:38:47;;;;;;;2.30;1.73;;;14.20;70.40;;;;;;4974074;28;20486;-75
2023/04/25 14:41:13;;;;;;;2.23;1.50;;;14.40;67.70;;;;;;4974168;28;20470;-76
2023/04/25 14:43:41;;;;;;;2.10;1.70;;;14.30;66.90;;;;;;4985073;28;20497;-76
2023/04/25 14:46:07;;;;;;;2.80;1.73;;;14.50;66.30;;;;;;5000520;28;20473;-75
2023/04/25 14:48:36;;;;;;;2.40;1.80;;;14.50;66.00;;;;;;5002301;28;20450;-76
2023/04/25 14:51:02;;;;;;;2.80;1.80;;;14.60;68.40;;;;;;4979480;28;20524;-76
2023/04/25 14:53:29;;;;;;;2.80;1.63;;;15.10;65.70;;;;;;4977647;28;20449;-77
2023/04/25 14:55:56;;;;;;;3.17;1.80;;;15.20;66.00;;;;;;4977387;28;20570;-76
2023/04/25 14:58:23;;;;;;;2.17;1.60;;;15.30;65.30;;;;;;4977341;28;20482;-76
2023/04/25 15:00:50;;;;;;;2.13;1.50;;;15.50;62.90;;;;;;4976877;28;20486;-76
2023/04/25 15:03:17;;;;;;;2.13;1.67;;;15.50;64.90;;;;;;4977376;28;20534;-76
2023/04/25 15:05:45;;;;;;;2.20;1.40;;;15.50;64.30;;;;;;4977319;28;20505;-77
2023/04/25 15:08:12;;;;;;;2.43;1.83;;;15.80;62.50;;;;;;4977581;28;20924;-76
2023/04/25 15:10:38;;;;;;;2.30;1.70;;;15.70;63.10;;;;;;4977749;28;20485;-76
2023/04/25 15:13:05;;;;;;;1.90;1.40;;;15.80;64.10;;;;;;4977519;28;20494;-76
2023/04/25 15:15:32;;;;;;;2.27;1.40;;;16.20;62.40;;;;;;4977247;28;20453;-77
2023/04/25 15:17:58;;;;;;;2.47;1.63;;;16.30;61.70;;;;;;4977075;28;20482;-76
2023/04/25 15:20:25;;;;;;;1.83;1.30;;;16.70;61.40;;;;;;4977047;28;20450;-76
2023/04/25 15:22:53;;;;;;;2.00;1.47;;;17.50;59.30;;;;;;4977395;28;20457;-76
2023/04/25 15:25:20;;;;;;;1.90;1.30;;;17.40;57.50;;;;;;4977900;28;20454;-76
2023/04/25 15:27:48;;;;;;;1.80;1.30;;;16.80;57.30;;;;;;4976967;28;20471;-74
2023/04/25 15:30:16;;;;;;;2.10;1.30;;;16.40;58.70;;;;;;4976597;28;20557;-76
2023/04/25 15:32:43;;;;;;;1.73;1.17;;;16.00;60.90;;;;;;4976705;28;20532;-73
2023/04/25 15:35:11;;;;;;;1.70;1.10;;;15.80;60.90;;;;;;4976388;28;20497;-75
2023/04/25 15:37:38;;;;;;;1.90;1.17;;;15.60;61.50;;;;;;4976487;28;20541;-75
2023/04/25 15:40:09;;;;;;;1.93;1.30;;;15.80;62.10;;;;;;4976442;28;20508;-75
2023/04/25 15:42:36;;;;;;;1.97;1.33;;;15.90;61.60;;;;;;4976171;28;20512;-75
2023/04/25 15:45:04;;;;;;;2.27;1.43;;;16.00;61.30;;;;;;4976339;28;20457;-76
2023/04/25 15:47:30;;;;;;;1.90;1.20;;;15.80;61.00;;;;;;4976415;28;20545;-75
2023/04/25 15:49:57;;;;;;;2.00;1.40;;;15.60;62.00;;;;;;4976558;28;20481;-76
2023/04/25 15:52:24;;;;;;;2.07;1.40;;;15.40;61.80;;;;;;4976211;28;20528;-75
2023/04/25 15:54:51;;;;;;;2.10;1.23;;;15.20;61.50;;;;;;4975862;28;20955;-76
2023/04/25 15:57:19;;;;;;;1.73;1.13;;;15.10;62.70;;;;;;4975865;28;20545;-76
2023/04/25 15:59:46;;;;;;;2.07;1.43;;;15.00;63.50;;;;;;4976093;28;20494;-76
2023/04/25 16:02:13;;;;;;;2.50;1.47;;;14.90;62.60;;;;;;4975572;28;20529;-75
2023/04/25 16:04:40;;;;;;;2.37;1.83;;;14.60;63.70;;;;;;4976080;28;20445;-75
2023/04/25 16:07:08;;;;;;;2.10;1.50;;;14.60;64.20;;;;;;4975855;28;20504;-76
2023/04/25 16:09:34;;;;;;;1.83;1.40;;;14.50;65.40;;;;;;4976002;28;20446;-75
2023/04/25 16:12:01;;;;;;;2.53;1.90;;;14.40;63.60;;;;;;4975597;28;21062;-76
2023/04/25 16:14:30;;;;;;;2.00;1.40;;;14.30;64.00;;;;;;4976392;28;20497;-76
2023/04/25 16:16:57;;;;;;;1.97;1.40;;;14.30;64.20;;;;;;4975974;28;20832;-76
2023/04/25 16:19:23;;;;;;;2.57;1.70;;;14.10;65.10;;;;;;4976444;28;20482;-76
2023/04/25 16:21:51;;;;;;;2.40;1.90;;;14.10;66.30;;;;;;4975706;28;20466;-75
2023/04/25 16:24:17;;;;;;;2.30;1.50;;;14.00;64.80;;;;;;4975886;28;20450;-75
2023/04/25 16:26:44;;;;;;;2.80;1.70;;;13.90;64.50;;;;;;4975669;28;20467;-76
2023/04/25 16:29:13;;;;;;;2.57;1.77;;;13.70;65.90;;;;;;4975369;28;20932;-75
2023/04/25 16:31:42;;;;;;;2.07;1.50;;;13.60;66.00;;;;;;4975676;28;20466;-75
2023/04/25 16:34:08;;;;;;;2.73;1.67;;;13.60;66.60;;;;;;4975731;28;20540;-77
2023/04/25 16:36:35;;;;;;;2.10;1.63;;;13.60;66.80;;;;;;4978209;28;20450;-77
2023/04/25 16:39:02;;;;;;;2.60;1.80;;;13.50;66.40;;;;;;4979312;28;21007;-77
2023/04/25 16:41:28;;;;;;;3.33;2.23;;;13.40;66.40;;;;;;4978150;28;20983;-77
2023/04/25 16:43:55;;;;;;;2.57;1.70;;;13.40;66.40;;;;;;4975671;28;20795;-77
2023/04/25 16:46:22;;;;;;;3.30;2.37;;;13.30;66.00;;;;;;4975581;28;20459;-75
2023/04/25 16:48:50;;;;;;;2.80;1.90;;;13.30;66.40;;;;;;4975069;28;20952;-76
2023/04/25 16:51:18;;;;;;;3.10;2.10;;;13.20;66.50;;;;;;4975511;28;20470;-76
2023/04/25 16:53:45;;;;;;;2.63;1.90;;;13.30;67.10;;;;;;4976852;28;20450;-75